Portada
METAR-TAF:

METAR-TAF

Aeroports :

Schefferville, Quebec, Canadà

latitud: 54-48N, longitud: 066-48W, altitud: 521 m

Observació

L'informe es va fer fa 1 hora i 5 minuts, a les 17:00 UTC
Vent calma
Temperatura -19°C
Humitat 49%
Pressió 1023 hPa
Visibilitat: 14.5 km
Cel clar

METAR: CYKL 271700Z AUTO 00000KT 9SM CLR M19/M27 A3021 RMK SLP310

Hora: 13:05 (18:05 UTC)

Pronòstic

L'informe es va fer fa 4 hores i 26 minuts, a les 13:39 UTC
Pronòstic vàlid del 27 a les 14 UTC al 28 a les 02 UTC
Vent 3 kt amb direcció variable
Visibilitat: 10 km
Cel clar
Temporalment
l' 27 a les 14 UTC al 27 a les 24 UTC
cristalls de gel
Evolucionant progressivament
l' 27 a les 18 UTC al 27 a les 20 UTC
Vent 6 kt del Est
A partir de les 28 a les 0000 UTC
Vent 5 kt del Est
Visibilitat: 10 km
Núvols disperses a una alçada de 22000 ft

TAF: CYKL 271339Z 2714/2802 VRB03KT P6SM SKC TEMPO 2714/2724 21/2SM IC BECMG 2718/2720 09006KT FM280000 10005KT P6SM SCT220 RMK FCST BASED ON AUTO OBS. NXT FCST BY 272000Z

Observacions i pronòstics meteorològics de més de 4000 aeroports (METAR i TAF).

Les estacions disponibles són els punts grocs i vermells al mapa.

Posi el ratolí al punt desitjat per veure el nom de l'estació.

Feu clic per veure les observacions i els pronòstics meteorològics.

Per canviar el mapa: feu clic els botons verds amb una creu de color negre per apropar; al botó verd amb un guió per allunyar la imatge; o en les fletxes verdes per a mapes adjacents.


METAR-TAF: